Centennial, WY (82055)

9:43 PM MST on December 25, 2014 (GMT -0700)
Aspen Country | Change Station
CLOSE
Current Station
Personal Weather Station
Location: Centennial, WY
Elevation: 8050 ft
Nearby Weather Stations
Active Advisory: Winter Storm Warning

Elev 8050 ft 41.29 °N, 106.15 °W | Updated 2 minutes ago

Snow
Snow
12.3 °F
Feels Like 12 °F
N
3.0
Wind Variable Wind from NE
Gusts 4.0 mph

Today
High -- | Low -- °F
--% Chance of Precip.
Yesterday
High -- | Low -- °F
Precip. -- in
7:28 AM 4:40 PM
Waxing Crescent, 22% visible
Pressure 29.74 in
Visibility 0.8 miles
Clouds
Windchill 12 °F
Dew Point 8 °F
Humidity 84%
Rainfall 0.17 in
Snow Depth Not available.
UV Not available.
Pollen .10 out of 12
Air Quality Not available.
Flu Activity Not available.
SPECI KLAR 260435Z AUTO 09004KT 3/4SM -SN BR VV010 M09/M12 A2974 RMK AO2 P0001 T10941117

More Conditions Fewer Conditions

Pressure 29.74 in
Visibility 0.8 miles
Clouds
Windchill 12 °F
Dew Point 8 °F
Humidity 84%
Rainfall 0.17 in
Snow Depth Not available.
UV Not available.
Pollen .10 out of 12
Air Quality Not available.
Flu Activity Not available.
SPECI KLAR 260435Z AUTO 09004KT 3/4SM -SN BR VV010 M09/M12 A2974 RMK AO2 P0001 T10941117

More Conditions Fewer Conditions

10-Day Weather Forecast

Almanac

Astronomy

Dec. 25, 2014 Rise Set
Actual Time
Civil Twilight
Nautical Twilight
Astronomical Twilight
Moon
Length of Visible Light
Length of Day
Tomorrow will be .
, % of the Moon is Illuminated

Today's Extremes

State Highs State Lows

Community

WunderPhotos

Upload Photos

1,780,537 photos uploaded!

WunderBlogs® & News

Nearby

Air Quality

  Air Quality AQ Index Pollutant
Not available.

Snow Depth

Station Depth Elevation

Earthquake Activity

City Distance Mag. Time & Date
Minimum magnitude displayed is 2.5.

Coastal Water Temperatures

Place Temperature

Nearby Weather Stations